Terminal Aerodrome Forecast
Issued by NWS

Home | Current Version | Previous Version | Text Only | Print | Product List | Glossary On
Versions: 1 2 3 4 5 6 7 8 9 10 11 12 13 14 15 16 17 18 19 20 21 22 23 24 25
933
FTUS43 KDVN 192301 AAB
TAFCID
TAF AMD
KCID 192301Z 1923/2018 09016G25KT 5SM BR OVC013
     FM200200 07014G20KT 5SM -DZ BR OVC009
     FM200800 07015G22KT 3SM SHRA VCTS OVC007CB
     FM201400 07010KT 2SM -RA BR OVC006=

USA.gov is the U.S. government's official web portal to all federal, state and local government web resources and services.